sensor_id;sensor_type;location;lat;lon;timestamp;pressure;altitude;pressure_sealevel;temperature;humidity
55032;BME280;40928;51.076;7.950;2022-09-30T00:01:39;96250.13;;;2.84;97.72
55032;BME280;40928;51.076;7.950;2022-09-30T00:04:05;96248.72;;;2.82;97.65
55032;BME280;40928;51.076;7.950;2022-09-30T00:06:32;96251.19;;;2.77;97.75
55032;BME280;40928;51.076;7.950;2022-09-30T00:09:00;96251.78;;;2.79;97.94
55032;BME280;40928;51.076;7.950;2022-09-30T00:11:29;96241.47;;;2.77;97.69
55032;BME280;40928;51.076;7.950;2022-09-30T00:13:55;96237.59;;;2.73;97.79
55032;BME280;40928;51.076;7.950;2022-09-30T00:16:24;96244.13;;;2.70;97.72
55032;BME280;40928;51.076;7.950;2022-09-30T00:18:50;96248.81;;;2.62;97.88
55032;BME280;40928;51.076;7.950;2022-09-30T00:21:16;96246.97;;;2.55;97.73
55032;BME280;40928;51.076;7.950;2022-09-30T00:23:42;96257.75;;;2.54;98.51
55032;BME280;40928;51.076;7.950;2022-09-30T00:26:20;96257.13;;;2.52;98.29
55032;BME280;40928;51.076;7.950;2022-09-30T00:28:56;96258.75;;;2.53;98.32
55032;BME280;40928;51.076;7.950;2022-09-30T00:31:24;96256.13;;;2.53;98.29
55032;BME280;40928;51.076;7.950;2022-09-30T00:33:50;96259.56;;;2.53;98.22
55032;BME280;40928;51.076;7.950;2022-09-30T00:38:59;96255.09;;;2.54;97.99
55032;BME280;40928;51.076;7.950;2022-09-30T00:41:25;96263.19;;;2.52;97.89
55032;BME280;40928;51.076;7.950;2022-09-30T00:43:51;96258.34;;;2.42;98.18
55032;BME280;40928;51.076;7.950;2022-09-30T00:46:39;96254.53;;;2.38;98.20
55032;BME280;40928;51.076;7.950;2022-09-30T00:49:11;96260.59;;;2.39;98.31
55032;BME280;40928;51.076;7.950;2022-09-30T00:51:42;96254.94;;;2.42;98.44
55032;BME280;40928;51.076;7.950;2022-09-30T00:54:13;96255.72;;;2.42;98.28
55032;BME280;40928;51.076;7.950;2022-09-30T00:56:44;96257.56;;;2.42;98.51
55032;BME280;40928;51.076;7.950;2022-09-30T00:59:12;96253.91;;;2.43;98.42
55032;BME280;40928;51.076;7.950;2022-09-30T01:01:40;96262.81;;;2.42;98.64
55032;BME280;40928;51.076;7.950;2022-09-30T01:04:14;96260.41;;;2.40;98.60
55032;BME280;40928;51.076;7.950;2022-09-30T01:06:41;96268.50;;;2.39;98.53
55032;BME280;40928;51.076;7.950;2022-09-30T01:09:08;96266.09;;;2.37;98.52
55032;BME280;40928;51.076;7.950;2022-09-30T01:11:33;96265.47;;;2.35;98.41
55032;BME280;40928;51.076;7.950;2022-09-30T01:14:03;96271.38;;;2.31;98.70
55032;BME280;40928;51.076;7.950;2022-09-30T01:17:03;96270.94;;;2.27;98.33
55032;BME280;40928;51.076;7.950;2022-09-30T01:31:00;96275.81;;;2.23;98.84
55032;BME280;40928;51.076;7.950;2022-09-30T01:33:38;96272.38;;;2.23;99.14
55032;BME280;40928;51.076;7.950;2022-09-30T01:45:08;96260.00;;;2.30;99.57
55032;BME280;40928;51.076;7.950;2022-09-30T01:47:50;96266.50;;;2.34;99.55
55032;BME280;40928;51.076;7.950;2022-09-30T01:50:58;96270.94;;;2.34;99.11
55032;BME280;40928;51.076;7.950;2022-09-30T01:53:42;96271.78;;;2.27;99.65
55032;BME280;40928;51.076;7.950;2022-09-30T01:56:17;96279.28;;;2.24;100.00
55032;BME280;40928;51.076;7.950;2022-09-30T01:58:56;96280.28;;;2.23;100.00
55032;BME280;40928;51.076;7.950;2022-09-30T02:01:31;96285.75;;;2.21;100.00
55032;BME280;40928;51.076;7.950;2022-09-30T02:04:06;96283.94;;;2.22;100.00
55032;BME280;40928;51.076;7.950;2022-09-30T02:06:36;96290.41;;;2.26;100.00
55032;BME280;40928;51.076;7.950;2022-09-30T02:09:04;96291.84;;;2.28;100.00
55032;BME280;40928;51.076;7.950;2022-09-30T02:11:33;96296.69;;;2.32;99.90
55032;BME280;40928;51.076;7.950;2022-09-30T02:14:09;96293.63;;;2.28;99.38
55032;BME280;40928;51.076;7.950;2022-09-30T02:16:39;96295.66;;;2.26;99.46
55032;BME280;40928;51.076;7.950;2022-09-30T02:19:21;96293.03;;;2.19;99.04
55032;BME280;40928;51.076;7.950;2022-09-30T02:21:55;96297.28;;;2.07;99.13
55032;BME280;40928;51.076;7.950;2022-09-30T02:24:24;96298.53;;;1.97;99.44
55032;BME280;40928;51.076;7.950;2022-09-30T02:26:55;96298.91;;;1.94;99.67
55032;BME280;40928;51.076;7.950;2022-09-30T02:29:27;96296.06;;;1.89;99.59
55032;BME280;40928;51.076;7.950;2022-09-30T02:31:59;96288.38;;;1.88;99.98
55032;BME280;40928;51.076;7.950;2022-09-30T02:34:54;96295.66;;;1.86;99.96
55032;BME280;40928;51.076;7.950;2022-09-30T02:37:42;96299.53;;;1.90;99.78
55032;BME280;40928;51.076;7.950;2022-09-30T02:40:30;96297.09;;;1.88;99.40
55032;BME280;40928;51.076;7.950;2022-09-30T02:43:00;96296.06;;;1.82;99.31
55032;BME280;40928;51.076;7.950;2022-09-30T02:45:30;96293.84;;;1.79;99.48
55032;BME280;40928;51.076;7.950;2022-09-30T02:50:50;96283.28;;;1.66;99.79
55032;BME280;40928;51.076;7.950;2022-09-30T02:53:38;96287.13;;;1.63;99.82
55032;BME280;40928;51.076;7.950;2022-09-30T02:59:26;96293.44;;;1.69;99.36
55032;BME280;40928;51.076;7.950;2022-09-30T03:01:52;96287.38;;;1.69;99.37
55032;BME280;40928;51.076;7.950;2022-09-30T03:04:21;96286.91;;;1.58;99.11
55032;BME280;40928;51.076;7.950;2022-09-30T03:06:49;96283.69;;;1.56;99.43
55032;BME280;40928;51.076;7.950;2022-09-30T03:09:15;96281.88;;;1.57;99.87
55032;BME280;40928;51.076;7.950;2022-09-30T03:11:40;96280.66;;;1.59;99.67
55032;BME280;40928;51.076;7.950;2022-09-30T03:14:36;96283.28;;;1.59;99.59
55032;BME280;40928;51.076;7.950;2022-09-30T03:17:28;96288.53;;;1.52;99.22
55032;BME280;40928;51.076;7.950;2022-09-30T03:33:52;96309.34;;;1.41;99.02
55032;BME280;40928;51.076;7.950;2022-09-30T03:39:00;96310.16;;;1.34;98.76
55032;BME280;40928;51.076;7.950;2022-09-30T03:44:25;96319.66;;;1.35;99.02
55032;BME280;40928;51.076;7.950;2022-09-30T03:46:57;96322.69;;;1.32;98.58
55032;BME280;40928;51.076;7.950;2022-09-30T03:49:38;96324.53;;;1.32;98.90
55032;BME280;40928;51.076;7.950;2022-09-30T03:52:06;96323.91;;;1.30;98.79
55032;BME280;40928;51.076;7.950;2022-09-30T03:54:32;96327.09;;;1.25;98.69
55032;BME280;40928;51.076;7.950;2022-09-30T03:56:57;96329.53;;;1.20;98.73
55032;BME280;40928;51.076;7.950;2022-09-30T03:59:29;96331.53;;;1.18;98.94
55032;BME280;40928;51.076;7.950;2022-09-30T04:01:55;96342.06;;;1.18;98.90
55032;BME280;40928;51.076;7.950;2022-09-30T04:04:24;96343.69;;;1.19;98.82
55032;BME280;40928;51.076;7.950;2022-09-30T04:06:49;96335.16;;;1.17;98.81
55032;BME280;40928;51.076;7.950;2022-09-30T04:09:15;96331.09;;;1.08;99.02
55032;BME280;40928;51.076;7.950;2022-09-30T04:11:41;96346.69;;;1.16;99.01
55032;BME280;40928;51.076;7.950;2022-09-30T04:14:07;96343.25;;;1.09;98.67
55032;BME280;40928;51.076;7.950;2022-09-30T04:16:32;96356.16;;;1.03;98.79
55032;BME280;40928;51.076;7.950;2022-09-30T04:18:58;96356.75;;;0.99;98.95
55032;BME280;40928;51.076;7.950;2022-09-30T04:21:24;96356.91;;;0.97;98.99
55032;BME280;40928;51.076;7.950;2022-09-30T04:23:53;96355.69;;;0.93;99.19
55032;BME280;40928;51.076;7.950;2022-09-30T04:26:19;96361.97;;;0.92;99.16
55032;BME280;40928;51.076;7.950;2022-09-30T04:28:45;96360.97;;;0.93;99.09
55032;BME280;40928;51.076;7.950;2022-09-30T04:31:11;96365.00;;;0.96;99.29
55032;BME280;40928;51.076;7.950;2022-09-30T04:33:38;96360.53;;;0.96;99.22
55032;BME280;40928;51.076;7.950;2022-09-30T04:36:04;96362.16;;;0.97;99.27
55032;BME280;40928;51.076;7.950;2022-09-30T04:38:30;96363.41;;;1.01;99.28
55032;BME280;40928;51.076;7.950;2022-09-30T04:40:56;96366.03;;;1.01;99.00
55032;BME280;40928;51.076;7.950;2022-09-30T04:43:24;96375.75;;;1.01;99.10
55032;BME280;40928;51.076;7.950;2022-09-30T04:45:50;96384.03;;;0.98;98.86
55032;BME280;40928;51.076;7.950;2022-09-30T04:48:19;96387.84;;;0.95;99.02
55032;BME280;40928;51.076;7.950;2022-09-30T04:50:47;96398.34;;;0.95;99.13
55032;BME280;40928;51.076;7.950;2022-09-30T04:53:12;96397.31;;;0.89;99.30
55032;BME280;40928;51.076;7.950;2022-09-30T04:55:42;96395.69;;;0.88;99.39
55032;BME280;40928;51.076;7.950;2022-09-30T04:58:09;96392.63;;;0.85;99.38
55032;BME280;40928;51.076;7.950;2022-09-30T05:00:35;96398.09;;;0.83;99.69
55032;BME280;40928;51.076;7.950;2022-09-30T05:03:00;96399.28;;;0.81;99.46
55032;BME280;40928;51.076;7.950;2022-09-30T05:05:27;96397.06;;;0.78;99.17
55032;BME280;40928;51.076;7.950;2022-09-30T05:07:58;96401.69;;;0.75;99.72
55032;BME280;40928;51.076;7.950;2022-09-30T05:10:24;96400.44;;;0.71;99.76
55032;BME280;40928;51.076;7.950;2022-09-30T05:12:51;96402.44;;;0.69;100.00
55032;BME280;40928;51.076;7.950;2022-09-30T05:15:17;96408.69;;;0.68;100.00
55032;BME280;40928;51.076;7.950;2022-09-30T05:17:42;96407.06;;;0.67;99.92
55032;BME280;40928;51.076;7.950;2022-09-30T05:20:08;96407.91;;;0.68;100.00
55032;BME280;40928;51.076;7.950;2022-09-30T05:22:35;96404.06;;;0.70;100.00
55032;BME280;40928;51.076;7.950;2022-09-30T05:25:00;96397.44;;;0.74;99.92
55032;BME280;40928;51.076;7.950;2022-09-30T05:27:28;96401.28;;;0.79;99.60
55032;BME280;40928;51.076;7.950;2022-09-30T05:29:53;96399.28;;;0.81;99.41
55032;BME280;40928;51.076;7.950;2022-09-30T05:32:19;96409.00;;;0.80;99.56
55032;BME280;40928;51.076;7.950;2022-09-30T05:34:45;96412.00;;;0.77;99.37
55032;BME280;40928;51.076;7.950;2022-09-30T05:37:11;96415.22;;;0.72;99.59
55032;BME280;40928;51.076;7.950;2022-09-30T05:39:37;96423.09;;;0.72;99.79
55032;BME280;40928;51.076;7.950;2022-09-30T05:42:02;96417.63;;;0.74;99.89
55032;BME280;40928;51.076;7.950;2022-09-30T05:44:28;96419.88;;;0.77;100.00
55032;BME280;40928;51.076;7.950;2022-09-30T05:46:53;96422.94;;;0.81;100.00
55032;BME280;40928;51.076;7.950;2022-09-30T05:49:19;96420.56;;;0.86;100.00
55032;BME280;40928;51.076;7.950;2022-09-30T05:51:45;96428.84;;;0.89;100.00
55032;BME280;40928;51.076;7.950;2022-09-30T05:54:10;96420.38;;;0.94;100.00
55032;BME280;40928;51.076;7.950;2022-09-30T05:56:36;96411.91;;;0.92;99.91
55032;BME280;40928;51.076;7.950;2022-09-30T05:59:05;96426.31;;;1.03;99.87
55032;BME280;40928;51.076;7.950;2022-09-30T06:01:31;96423.25;;;0.99;99.60
55032;BME280;40928;51.076;7.950;2022-09-30T06:03:57;96431.97;;;1.00;99.53
55032;BME280;40928;51.076;7.950;2022-09-30T06:06:23;96436.78;;;0.96;99.22
55032;BME280;40928;51.076;7.950;2022-09-30T06:08:48;96430.09;;;0.94;99.60
55032;BME280;40928;51.076;7.950;2022-09-30T06:11:16;96433.75;;;0.93;100.00
55032;BME280;40928;51.076;7.950;2022-09-30T06:13:44;96428.91;;;0.96;100.00
55032;BME280;40928;51.076;7.950;2022-09-30T06:16:11;96447.56;;;1.01;99.91
55032;BME280;40928;51.076;7.950;2022-09-30T06:18:37;96450.97;;;1.02;100.00
55032;BME280;40928;51.076;7.950;2022-09-30T06:21:06;96444.34;;;1.06;100.00
55032;BME280;40928;51.076;7.950;2022-09-30T06:23:32;96454.84;;;1.06;100.00
55032;BME280;40928;51.076;7.950;2022-09-30T06:26:02;96450.03;;;1.10;100.00
55032;BME280;40928;51.076;7.950;2022-09-30T06:28:28;96459.34;;;1.12;100.00
55032;BME280;40928;51.076;7.950;2022-09-30T06:30:53;96467.28;;;1.19;100.00
55032;BME280;40928;51.076;7.950;2022-09-30T06:33:20;96469.13;;;1.25;100.00
55032;BME280;40928;51.076;7.950;2022-09-30T06:35:46;96471.38;;;1.28;100.00
55032;BME280;40928;51.076;7.950;2022-09-30T06:38:13;96474.03;;;1.35;100.00
55032;BME280;40928;51.076;7.950;2022-09-30T06:40:41;96471.03;;;1.38;100.00
55032;BME280;40928;51.076;7.950;2022-09-30T06:43:07;96479.78;;;1.45;100.00
55032;BME280;40928;51.076;7.950;2022-09-30T06:45:34;96487.09;;;1.50;100.00
55032;BME280;40928;51.076;7.950;2022-09-30T06:48:02;96486.13;;;1.58;100.00
55032;BME280;40928;51.076;7.950;2022-09-30T06:50:29;96483.13;;;1.67;100.00
55032;BME280;40928;51.076;7.950;2022-09-30T06:52:59;96473.03;;;1.78;100.00
55032;BME280;40928;51.076;7.950;2022-09-30T06:55:27;96477.94;;;1.88;100.00
55032;BME280;40928;51.076;7.950;2022-09-30T06:57:53;96490.13;;;1.95;100.00
55032;BME280;40928;51.076;7.950;2022-09-30T07:00:20;96484.28;;;2.07;100.00
55032;BME280;40928;51.076;7.950;2022-09-30T07:02:46;96490.19;;;2.16;100.00
55032;BME280;40928;51.076;7.950;2022-09-30T07:05:14;96491.66;;;2.25;100.00
55032;BME280;40928;51.076;7.950;2022-09-30T07:07:41;96501.78;;;2.35;100.00
55032;BME280;40928;51.076;7.950;2022-09-30T07:10:08;96496.34;;;2.50;100.00
55032;BME280;40928;51.076;7.950;2022-09-30T07:12:34;96500.03;;;2.62;100.00
55032;BME280;40928;51.076;7.950;2022-09-30T07:15:00;96502.47;;;2.77;100.00
55032;BME280;40928;51.076;7.950;2022-09-30T07:17:27;96506.94;;;2.97;100.00
55032;BME280;40928;51.076;7.950;2022-09-30T07:19:52;96508.34;;;3.13;100.00
55032;BME280;40928;51.076;7.950;2022-09-30T07:22:20;96504.09;;;3.25;100.00
55032;BME280;40928;51.076;7.950;2022-09-30T07:24:52;96501.22;;;3.40;100.00
55032;BME280;40928;51.076;7.950;2022-09-30T07:27:18;96506.25;;;3.55;100.00
55032;BME280;40928;51.076;7.950;2022-09-30T07:29:44;96507.44;;;3.73;100.00
55032;BME280;40928;51.076;7.950;2022-09-30T07:32:10;96517.13;;;3.92;100.00
55032;BME280;40928;51.076;7.950;2022-09-30T07:34:39;96505.09;;;4.10;100.00
55032;BME280;40928;51.076;7.950;2022-09-30T07:37:12;96513.94;;;4.29;100.00
55032;BME280;40928;51.076;7.950;2022-09-30T07:39:40;96515.03;;;4.53;100.00
55032;BME280;40928;51.076;7.950;2022-09-30T07:42:06;96515.13;;;4.72;100.00
55032;BME280;40928;51.076;7.950;2022-09-30T07:44:35;96519.28;;;4.86;100.00
55032;BME280;40928;51.076;7.950;2022-09-30T07:47:05;96516.72;;;4.98;100.00
55032;BME280;40928;51.076;7.950;2022-09-30T07:49:30;96517.81;;;5.16;100.00
55032;BME280;40928;51.076;7.950;2022-09-30T07:51:57;96518.47;;;5.37;99.75
55032;BME280;40928;51.076;7.950;2022-09-30T07:54:28;96512.97;;;5.57;99.76
55032;BME280;40928;51.076;7.950;2022-09-30T07:56:56;96513.00;;;5.75;99.35
55032;BME280;40928;51.076;7.950;2022-09-30T07:59:22;96518.66;;;5.98;99.00
55032;BME280;40928;51.076;7.950;2022-09-30T08:01:48;96520.28;;;6.17;98.28
55032;BME280;40928;51.076;7.950;2022-09-30T08:04:16;96520.88;;;6.38;97.45
55032;BME280;40928;51.076;7.950;2022-09-30T08:06:51;96523.44;;;6.57;96.88
55032;BME280;40928;51.076;7.950;2022-09-30T08:09:18;96525.03;;;6.76;97.07
55032;BME280;40928;51.076;7.950;2022-09-30T08:11:45;96522.41;;;6.88;96.01
55032;BME280;40928;51.076;7.950;2022-09-30T08:14:18;96530.50;;;7.05;95.46
55032;BME280;40928;51.076;7.950;2022-09-30T08:16:44;96524.31;;;7.23;95.39
55032;BME280;40928;51.076;7.950;2022-09-30T08:19:16;96540.38;;;7.40;94.35
55032;BME280;40928;51.076;7.950;2022-09-30T08:21:43;96532.75;;;7.56;94.55
55032;BME280;40928;51.076;7.950;2022-09-30T08:24:09;96541.41;;;7.75;93.88
55032;BME280;40928;51.076;7.950;2022-09-30T08:26:34;96546.34;;;7.95;92.76
55032;BME280;40928;51.076;7.950;2022-09-30T08:29:00;96540.09;;;8.13;92.78
55032;BME280;40928;51.076;7.950;2022-09-30T08:31:26;96540.13;;;8.30;92.21
55032;BME280;40928;51.076;7.950;2022-09-30T08:33:54;96544.84;;;8.52;91.25
55032;BME280;40928;51.076;7.950;2022-09-30T08:36:22;96550.53;;;8.73;90.65
55032;BME280;40928;51.076;7.950;2022-09-30T08:38:48;96538.06;;;8.90;90.57
55032;BME280;40928;51.076;7.950;2022-09-30T08:41:36;96541.09;;;9.11;90.07
55032;BME280;40928;51.076;7.950;2022-09-30T08:52:13;96552.81;;;10.00;88.52
55032;BME280;40928;51.076;7.950;2022-09-30T08:54:41;96554.50;;;10.29;86.63
55032;BME280;40928;51.076;7.950;2022-09-30T08:57:12;96550.56;;;10.54;85.27
55032;BME280;40928;51.076;7.950;2022-09-30T08:59:48;96548.09;;;10.74;84.61
55032;BME280;40928;51.076;7.950;2022-09-30T09:02:32;96555.34;;;11.06;83.52
55032;BME280;40928;51.076;7.950;2022-09-30T09:05:04;96552.91;;;11.32;82.98
55032;BME280;40928;51.076;7.950;2022-09-30T09:14:24;96541.25;;;12.40;78.14
55032;BME280;40928;51.076;7.950;2022-09-30T09:17:37;96544.31;;;12.79;74.44
55032;BME280;40928;51.076;7.950;2022-09-30T09:22:24;96541.09;;;12.83;65.04
55032;BME280;40928;51.076;7.950;2022-09-30T09:24:52;96550.25;;;13.38;64.96
55032;BME280;40928;51.076;7.950;2022-09-30T09:27:22;96546.78;;;13.74;64.35
55032;BME280;40928;51.076;7.950;2022-09-30T09:30:06;96545.34;;;14.18;59.54
55032;BME280;40928;51.076;7.950;2022-09-30T09:32:33;96544.19;;;14.35;57.99
55032;BME280;40928;51.076;7.950;2022-09-30T09:35:05;96539.59;;;15.01;56.74
55032;BME280;40928;51.076;7.950;2022-09-30T09:45:59;96541.03;;;16.59;48.22
55032;BME280;40928;51.076;7.950;2022-09-30T09:48:29;96543.19;;;17.20;46.90
55032;BME280;40928;51.076;7.950;2022-09-30T09:55:58;96547.03;;;18.13;42.48
55032;BME280;40928;51.076;7.950;2022-09-30T09:58:25;96552.31;;;18.46;43.25
55032;BME280;40928;51.076;7.950;2022-09-30T10:00:51;96545.50;;;18.63;41.94
55032;BME280;40928;51.076;7.950;2022-09-30T10:03:24;96551.75;;;19.14;40.08
55032;BME280;40928;51.076;7.950;2022-09-30T10:06:08;96544.97;;;18.89;40.39
55032;BME280;40928;51.076;7.950;2022-09-30T10:08:37;96535.94;;;19.30;39.42
55032;BME280;40928;51.076;7.950;2022-09-30T10:11:25;96536.53;;;19.50;37.82
55032;BME280;40928;51.076;7.950;2022-09-30T10:13:59;96539.88;;;20.01;38.60
55032;BME280;40928;51.076;7.950;2022-09-30T10:16:34;96535.19;;;20.91;37.26
55032;BME280;40928;51.076;7.950;2022-09-30T10:19:17;96552.13;;;21.40;36.95
55032;BME280;40928;51.076;7.950;2022-09-30T10:21:44;96548.13;;;21.55;36.28
55032;BME280;40928;51.076;7.950;2022-09-30T10:24:27;96548.78;;;21.26;35.17
55032;BME280;40928;51.076;7.950;2022-09-30T10:26:53;96549.53;;;20.24;35.38
55032;BME280;40928;51.076;7.950;2022-09-30T10:29:33;96547.28;;;20.27;34.87
55032;BME280;40928;51.076;7.950;2022-09-30T10:32:01;96552.69;;;20.67;35.05
55032;BME280;40928;51.076;7.950;2022-09-30T10:34:29;96547.00;;;20.77;34.03
55032;BME280;40928;51.076;7.950;2022-09-30T10:36:59;96549.25;;;21.72;34.05
55032;BME280;40928;51.076;7.950;2022-09-30T10:39:28;96553.78;;;21.98;33.36
55032;BME280;40928;51.076;7.950;2022-09-30T10:44:27;96567.22;;;23.02;31.95
55032;BME280;40928;51.076;7.950;2022-09-30T10:46:59;96562.72;;;23.48;30.61
55032;BME280;40928;51.076;7.950;2022-09-30T10:49:46;96554.22;;;23.29;30.35
55032;BME280;40928;51.076;7.950;2022-09-30T10:52:31;96561.50;;;23.37;30.48
55032;BME280;40928;51.076;7.950;2022-09-30T10:54:59;96548.19;;;23.23;30.25
55032;BME280;40928;51.076;7.950;2022-09-30T10:59:59;96562.69;;;22.16;31.90
55032;BME280;40928;51.076;7.950;2022-09-30T11:18:40;96529.38;;;24.10;29.30
55032;BME280;40928;51.076;7.950;2022-09-30T11:21:27;96535.22;;;23.87;29.21
55032;BME280;40928;51.076;7.950;2022-09-30T11:24:01;96541.16;;;25.13;28.33
55032;BME280;40928;51.076;7.950;2022-09-30T11:38:06;96522.91;;;25.17;28.74
55032;BME280;40928;51.076;7.950;2022-09-30T11:43:36;96532.00;;;25.78;27.96
55032;BME280;40928;51.076;7.950;2022-09-30T11:54:57;96520.44;;;25.12;27.21
55032;BME280;40928;51.076;7.950;2022-09-30T11:57:38;96538.34;;;25.66;26.53
55032;BME280;40928;51.076;7.950;2022-09-30T12:02:41;96534.59;;;26.19;23.99
55032;BME280;40928;51.076;7.950;2022-09-30T12:07:53;96525.63;;;25.30;25.86
55032;BME280;40928;51.076;7.950;2022-09-30T12:10:26;96531.97;;;25.62;24.97
55032;BME280;40928;51.076;7.950;2022-09-30T12:13:08;96533.47;;;24.16;27.08
55032;BME280;40928;51.076;7.950;2022-09-30T12:15:39;96540.44;;;25.57;26.05
55032;BME280;40928;51.076;7.950;2022-09-30T12:18:11;96538.50;;;26.34;25.83
55032;BME280;40928;51.076;7.950;2022-09-30T12:20:49;96539.63;;;24.75;26.47
55032;BME280;40928;51.076;7.950;2022-09-30T12:23:35;96541.81;;;23.86;27.76
55032;BME280;40928;51.076;7.950;2022-09-30T12:26:04;96539.16;;;24.60;26.88
55032;BME280;40928;51.076;7.950;2022-09-30T12:28:35;96537.31;;;25.43;26.34
55032;BME280;40928;51.076;7.950;2022-09-30T12:38:02;96529.91;;;23.91;26.44
55032;BME280;40928;51.076;7.950;2022-09-30T12:48:14;96527.69;;;26.09;25.31
55032;BME280;40928;51.076;7.950;2022-09-30T12:50:48;96512.59;;;25.83;24.40
55032;BME280;40928;51.076;7.950;2022-09-30T12:53:24;96511.50;;;26.17;24.85
55032;BME280;40928;51.076;7.950;2022-09-30T12:55:51;96522.75;;;25.26;25.58
55032;BME280;40928;51.076;7.950;2022-09-30T12:58:25;96511.41;;;24.58;27.32
55032;BME280;40928;51.076;7.950;2022-09-30T13:01:00;96517.88;;;24.78;26.67
55032;BME280;40928;51.076;7.950;2022-09-30T13:03:27;96510.13;;;25.94;25.63
55032;BME280;40928;51.076;7.950;2022-09-30T13:06:07;96514.72;;;24.52;27.38
55032;BME280;40928;51.076;7.950;2022-09-30T13:11:27;96507.03;;;21.57;30.10
55032;BME280;40928;51.076;7.950;2022-09-30T13:13:59;96511.81;;;20.54;32.55
55032;BME280;40928;51.076;7.950;2022-09-30T13:17:00;96513.56;;;19.92;34.77
55032;BME280;40928;51.076;7.950;2022-09-30T13:19:38;96514.97;;;19.13;36.08
55032;BME280;40928;51.076;7.950;2022-09-30T13:27:33;96517.31;;;19.60;35.29
55032;BME280;40928;51.076;7.950;2022-09-30T13:30:32;96508.44;;;20.49;34.34
55032;BME280;40928;51.076;7.950;2022-09-30T13:43:34;96501.28;;;22.45;30.76
55032;BME280;40928;51.076;7.950;2022-09-30T13:46:34;96508.69;;;22.35;30.01
55032;BME280;40928;51.076;7.950;2022-09-30T13:49:45;96486.00;;;20.75;32.42
55032;BME280;40928;51.076;7.950;2022-09-30T13:52:40;96487.25;;;20.60;32.69
55032;BME280;40928;51.076;7.950;2022-09-30T13:55:13;96499.00;;;20.29;33.15
55032;BME280;40928;51.076;7.950;2022-09-30T13:58:34;96485.84;;;21.33;31.97
55032;BME280;40928;51.076;7.950;2022-09-30T14:12:44;96475.03;;;22.49;30.23
55032;BME280;40928;51.076;7.950;2022-09-30T14:23:20;96459.97;;;20.74;31.83
55032;BME280;40928;51.076;7.950;2022-09-30T14:31:31;96464.66;;;20.15;34.43
55032;BME280;40928;51.076;7.950;2022-09-30T14:33:58;96472.19;;;20.18;34.31
55032;BME280;40928;51.076;7.950;2022-09-30T14:36:24;96475.78;;;19.96;33.89
55032;BME280;40928;51.076;7.950;2022-09-30T14:38:52;96463.81;;;19.34;35.03
55032;BME280;40928;51.076;7.950;2022-09-30T14:41:22;96459.97;;;19.58;36.25
55032;BME280;40928;51.076;7.950;2022-09-30T14:43:51;96467.34;;;19.66;36.15
55032;BME280;40928;51.076;7.950;2022-09-30T14:48:51;96457.72;;;18.83;35.86
55032;BME280;40928;51.076;7.950;2022-09-30T14:51:18;96445.22;;;18.36;37.05
55032;BME280;40928;51.076;7.950;2022-09-30T14:53:55;96448.25;;;18.21;38.65
55032;BME280;40928;51.076;7.950;2022-09-30T14:56:28;96450.63;;;18.36;38.51
55032;BME280;40928;51.076;7.950;2022-09-30T14:58:58;96454.25;;;17.76;37.77
55032;BME280;40928;51.076;7.950;2022-09-30T15:01:44;96449.09;;;17.32;38.69
55032;BME280;40928;51.076;7.950;2022-09-30T15:04:18;96448.78;;;17.34;38.91
55032;BME280;40928;51.076;7.950;2022-09-30T15:06:48;96441.72;;;17.05;39.19
55032;BME280;40928;51.076;7.950;2022-09-30T15:09:22;96439.59;;;17.02;40.34
55032;BME280;40928;51.076;7.950;2022-09-30T15:11:48;96442.00;;;16.84;40.05
55032;BME280;40928;51.076;7.950;2022-09-30T15:14:17;96434.41;;;16.86;40.38
55032;BME280;40928;51.076;7.950;2022-09-30T15:16:51;96436.44;;;16.62;40.92
55032;BME280;40928;51.076;7.950;2022-09-30T15:19:20;96435.97;;;16.16;41.40
55032;BME280;40928;51.076;7.950;2022-09-30T15:21:47;96432.38;;;16.02;42.35
55032;BME280;40928;51.076;7.950;2022-09-30T15:24:15;96426.84;;;16.12;42.25
55032;BME280;40928;51.076;7.950;2022-09-30T15:26:42;96423.06;;;16.13;42.71
55032;BME280;40928;51.076;7.950;2022-09-30T15:29:12;96438.97;;;15.90;42.45
55032;BME280;40928;51.076;7.950;2022-09-30T15:31:46;96436.06;;;15.87;42.76
55032;BME280;40928;51.076;7.950;2022-09-30T15:34:20;96434.53;;;15.75;43.43
55032;BME280;40928;51.076;7.950;2022-09-30T15:37:00;96434.88;;;15.44;44.01
55032;BME280;40928;51.076;7.950;2022-09-30T15:39:35;96433.13;;;15.29;44.34
55032;BME280;40928;51.076;7.950;2022-09-30T15:50:57;96441.84;;;14.86;44.81
55032;BME280;40928;51.076;7.950;2022-09-30T15:53:30;96430.91;;;14.72;44.92
55032;BME280;40928;51.076;7.950;2022-09-30T15:58:54;96439.63;;;14.49;45.65
55032;BME280;40928;51.076;7.950;2022-09-30T16:01:20;96438.84;;;14.43;45.99
55032;BME280;40928;51.076;7.950;2022-09-30T16:03:58;96437.00;;;14.43;46.78
55032;BME280;40928;51.076;7.950;2022-09-30T16:06:35;96431.94;;;14.31;46.48
55032;BME280;40928;51.076;7.950;2022-09-30T16:09:04;96441.09;;;14.25;46.39
55032;BME280;40928;51.076;7.950;2022-09-30T16:11:40;96435.53;;;14.11;47.08
55032;BME280;40928;51.076;7.950;2022-09-30T16:14:17;96441.75;;;14.07;47.23
55032;BME280;40928;51.076;7.950;2022-09-30T16:16:51;96443.91;;;14.05;47.72
55032;BME280;40928;51.076;7.950;2022-09-30T16:19:20;96449.56;;;13.98;48.22
55032;BME280;40928;51.076;7.950;2022-09-30T16:21:52;96444.50;;;13.91;49.47
55032;BME280;40928;51.076;7.950;2022-09-30T16:26:49;96439.44;;;13.79;51.00
55032;BME280;40928;51.076;7.950;2022-09-30T16:29:15;96441.88;;;13.65;51.10
55032;BME280;40928;51.076;7.950;2022-09-30T16:31:42;96438.16;;;13.56;50.67
55032;BME280;40928;51.076;7.950;2022-09-30T16:34:13;96445.41;;;13.50;51.60
55032;BME280;40928;51.076;7.950;2022-09-30T16:36:42;96442.75;;;13.24;51.29
55032;BME280;40928;51.076;7.950;2022-09-30T16:39:11;96442.75;;;13.24;51.68
55032;BME280;40928;51.076;7.950;2022-09-30T16:41:39;96442.22;;;13.22;52.03
55032;BME280;40928;51.076;7.950;2022-09-30T16:44:05;96448.91;;;13.25;53.22
55032;BME280;40928;51.076;7.950;2022-09-30T16:46:31;96456.13;;;13.24;54.08
55032;BME280;40928;51.076;7.950;2022-09-30T16:49:10;96457.50;;;13.12;55.90
55032;BME280;40928;51.076;7.950;2022-09-30T16:51:38;96452.94;;;12.97;56.63